createdAt,value
2019-02-18T00:02:28.890Z,99.90
2019-02-18T00:04:55.907Z,99.90
2019-02-18T00:07:23.059Z,99.90
2019-02-18T00:09:50.618Z,99.90
2019-02-18T00:12:17.807Z,99.90
2019-02-18T00:14:45.142Z,99.90
2019-02-18T00:17:12.192Z,99.90
2019-02-18T00:19:40.251Z,99.90
2019-02-18T00:22:07.387Z,99.90
2019-02-18T00:24:34.534Z,99.90
2019-02-18T00:27:01.650Z,99.90
2019-02-18T00:29:29.121Z,99.90
2019-02-18T00:31:56.438Z,99.90
2019-02-18T00:34:23.903Z,99.90
2019-02-18T00:36:50.962Z,99.90
2019-02-18T00:39:18.258Z,99.90
2019-02-18T00:41:45.376Z,99.90
2019-02-18T00:44:12.494Z,99.90
2019-02-18T00:46:40.062Z,99.90
2019-02-18T00:49:07.062Z,99.90
2019-02-18T00:51:35.230Z,99.90
2019-02-18T00:54:02.320Z,99.90
2019-02-18T00:56:29.756Z,99.90
2019-02-18T00:58:56.986Z,99.90
2019-02-18T01:01:24.109Z,99.90
2019-02-18T01:03:51.965Z,99.90
2019-02-18T01:06:18.982Z,99.90
2019-02-18T01:08:46.236Z,99.90
2019-02-18T01:11:13.385Z,99.90
2019-02-18T01:13:40.779Z,99.90
2019-02-18T01:16:07.870Z,99.90
2019-02-18T01:18:44.213Z,99.90
2019-02-18T01:21:12.273Z,99.90
2019-02-18T01:23:39.506Z,99.90
2019-02-18T01:26:06.792Z,99.90
2019-02-18T01:28:34.306Z,99.90
2019-02-18T01:31:01.723Z,99.90
2019-02-18T01:33:30.688Z,99.90
2019-02-18T01:35:57.904Z,99.90
2019-02-18T01:38:25.005Z,99.90
2019-02-18T01:40:52.039Z,99.90
2019-02-18T01:43:19.411Z,99.90
2019-02-18T01:45:46.834Z,99.90
2019-02-18T01:48:14.127Z,99.90
2019-02-18T01:50:41.268Z,99.90
2019-02-18T01:53:08.592Z,99.90
2019-02-18T01:55:36.139Z,99.90
2019-02-18T01:58:03.427Z,99.90
2019-02-18T02:00:31.758Z,99.90
2019-02-18T02:02:58.844Z,99.90
2019-02-18T02:05:26.391Z,99.90
2019-02-18T02:07:56.283Z,99.90
2019-02-18T02:10:22.444Z,99.90
2019-02-18T02:12:49.788Z,99.90
2019-02-18T02:15:20.123Z,99.90
2019-02-18T02:17:47.154Z,99.90
2019-02-18T02:20:14.263Z,99.90
2019-02-18T02:22:41.480Z,99.90
2019-02-18T02:25:08.971Z,99.90
2019-02-18T02:27:37.526Z,99.90
2019-02-18T02:30:05.111Z,99.90
2019-02-18T02:32:32.329Z,99.90
2019-02-18T02:34:59.790Z,99.90
2019-02-18T02:37:26.932Z,99.90
2019-02-18T02:39:54.151Z,99.90
2019-02-18T02:42:21.444Z,99.90
2019-02-18T02:44:48.570Z,99.90
2019-02-18T02:47:15.890Z,99.90
2019-02-18T02:49:43.305Z,99.90
2019-02-18T02:52:10.326Z,99.90
2019-02-18T02:54:37.830Z,99.90
2019-02-18T02:57:05.071Z,99.90
2019-02-18T02:59:32.231Z,99.90
2019-02-18T03:01:59.517Z,99.90
2019-02-18T03:04:26.918Z,99.90
2019-02-18T03:06:53.910Z,99.90
2019-02-18T03:09:21.015Z,99.90
2019-02-18T03:11:48.287Z,99.90
2019-02-18T03:14:15.733Z,99.90
2019-02-18T03:16:42.792Z,99.90
2019-02-18T03:19:09.825Z,99.90
2019-02-18T03:21:36.871Z,99.90
2019-02-18T03:24:04.042Z,99.90
2019-02-18T03:26:31.379Z,99.90
2019-02-18T03:30:05.290Z,99.90
2019-02-18T03:32:39.503Z,99.90
2019-02-18T03:35:06.723Z,99.90
2019-02-18T03:37:34.468Z,99.90
2019-02-18T03:40:01.568Z,99.90
2019-02-18T03:42:28.984Z,99.90
2019-02-18T03:44:56.173Z,99.90
2019-02-18T03:47:24.350Z,99.90
2019-02-18T03:49:51.392Z,99.90
2019-02-18T03:52:18.464Z,99.90
2019-02-18T03:54:45.487Z,99.90
2019-02-18T03:57:13.118Z,99.90
2019-02-18T03:59:40.168Z,99.90
2019-02-18T04:02:07.456Z,99.90
2019-02-18T04:04:34.779Z,99.90
2019-02-18T04:07:01.928Z,99.90
2019-02-18T04:09:29.012Z,99.90
2019-02-18T04:11:56.640Z,99.90
2019-02-18T04:14:23.685Z,99.90
2019-02-18T04:16:50.778Z,99.90
2019-02-18T04:19:18.813Z,99.90
2019-02-18T04:21:46.355Z,99.90
2019-02-18T04:24:13.648Z,99.90
2019-02-18T04:26:41.280Z,99.90
2019-02-18T04:29:08.354Z,99.90
2019-02-18T04:31:35.503Z,99.90
2019-02-18T04:34:02.996Z,99.90
2019-02-18T04:36:30.112Z,99.90
2019-02-18T04:38:57.165Z,99.90
2019-02-18T04:41:24.687Z,99.90
2019-02-18T04:43:51.999Z,99.90
2019-02-18T04:46:19.011Z,99.90
2019-02-18T04:48:46.056Z,99.90
2019-02-18T04:51:13.293Z,99.90
2019-02-18T04:53:40.753Z,99.90
2019-02-18T04:56:09.330Z,99.90
2019-02-18T04:58:37.443Z,99.90
2019-02-18T05:01:05.612Z,99.90
2019-02-18T05:03:32.740Z,99.90
2019-02-18T05:05:59.980Z,99.90
2019-02-18T05:08:27.387Z,99.90
2019-02-18T05:10:54.714Z,99.90
2019-02-18T05:13:21.999Z,99.90
2019-02-18T05:15:49.006Z,99.90
2019-02-18T05:18:16.318Z,99.90
2019-02-18T05:20:43.332Z,99.90
2019-02-18T05:23:10.835Z,99.90
2019-02-18T05:25:38.706Z,99.90
2019-02-18T05:28:05.904Z,99.90
2019-02-18T05:30:33.396Z,99.90
2019-02-18T05:33:00.557Z,99.90
2019-02-18T05:35:28.048Z,99.90
2019-02-18T05:37:55.094Z,99.90
2019-02-18T05:40:23.368Z,99.90
2019-02-18T05:42:51.660Z,99.90
2019-02-18T05:45:19.289Z,99.90
2019-02-18T05:47:46.335Z,99.90
2019-02-18T05:50:14.541Z,99.90
2019-02-18T05:52:41.855Z,99.90
2019-02-18T05:55:08.852Z,99.90
2019-02-18T05:57:36.116Z,99.90
2019-02-18T06:00:04.873Z,99.90
2019-02-18T06:02:31.970Z,99.90
2019-02-18T06:04:59.656Z,99.90
2019-02-18T06:07:26.783Z,99.90
2019-02-18T06:09:54.047Z,99.90
2019-02-18T06:12:23.928Z,99.90
2019-02-18T06:14:51.087Z,99.90
2019-02-18T06:18:10.609Z,99.90
2019-02-18T06:20:47.045Z,99.90
2019-02-18T06:23:18.975Z,99.90
2019-02-18T06:25:46.939Z,99.90
2019-02-18T06:28:14.145Z,99.90
2019-02-18T06:30:41.265Z,99.90
2019-02-18T06:33:08.338Z,99.90
2019-02-18T06:35:35.671Z,99.90
2019-02-18T06:38:03.031Z,99.90
2019-02-18T06:40:30.482Z,99.90
2019-02-18T06:42:57.613Z,99.90
2019-02-18T06:45:39.470Z,99.90
2019-02-18T06:48:15.491Z,99.90
2019-02-18T06:50:42.663Z,99.90
2019-02-18T06:53:09.744Z,99.90
2019-02-18T06:55:37.322Z,99.90
2019-02-18T06:58:24.331Z,99.90
2019-02-18T07:00:59.369Z,99.90
2019-02-18T07:03:31.134Z,99.90
2019-02-18T07:06:05.386Z,99.90
2019-02-18T07:08:46.809Z,99.90
2019-02-18T07:11:18.227Z,99.90
2019-02-18T07:13:45.339Z,99.90
2019-02-18T07:16:12.464Z,99.90
2019-02-18T07:18:40.043Z,99.90
2019-02-18T07:21:07.109Z,99.90
2019-02-18T07:23:34.809Z,99.90
2019-02-18T07:26:02.335Z,99.90
2019-02-18T07:28:29.498Z,99.90
2019-02-18T07:30:56.662Z,99.90
2019-02-18T07:33:23.983Z,99.90
2019-02-18T07:35:51.205Z,99.90
2019-02-18T07:38:18.261Z,99.90
2019-02-18T07:40:45.391Z,99.90
2019-02-18T07:43:12.767Z,99.90
2019-02-18T07:45:39.797Z,99.90
2019-02-18T07:48:07.249Z,99.90
2019-02-18T07:50:34.464Z,99.90
2019-02-18T07:53:01.878Z,99.90
2019-02-18T07:55:28.945Z,99.90
2019-02-18T07:57:55.978Z,99.90
2019-02-18T08:00:23.684Z,99.90
2019-02-18T08:02:51.554Z,99.90
2019-02-18T08:05:18.834Z,99.90
2019-02-18T08:07:46.140Z,99.90
2019-02-18T08:10:13.512Z,99.90
2019-02-18T08:12:40.661Z,99.90
2019-02-18T08:15:16.598Z,99.90
2019-02-18T08:17:43.899Z,99.90
2019-02-18T08:20:21.088Z,99.90
2019-02-18T08:22:48.946Z,99.90
2019-02-18T08:25:16.248Z,99.90
2019-02-18T08:27:43.924Z,99.90
2019-02-18T08:30:11.570Z,99.90
2019-02-18T08:32:38.768Z,99.90
2019-02-18T08:35:06.454Z,99.90
2019-02-18T08:37:33.502Z,99.90
2019-02-18T08:40:00.780Z,99.90
2019-02-18T08:42:28.226Z,99.90
2019-02-18T08:44:55.560Z,99.90
2019-02-18T08:47:23.844Z,99.90
2019-02-18T08:49:51.010Z,99.90
2019-02-18T08:52:18.242Z,99.90
2019-02-18T08:54:45.664Z,99.90
2019-02-18T08:57:12.909Z,99.90
2019-02-18T08:59:40.481Z,99.90
2019-02-18T09:02:07.991Z,99.90
2019-02-18T09:04:35.319Z,99.90
2019-02-18T09:07:02.770Z,99.90
2019-02-18T09:09:29.916Z,99.90
2019-02-18T09:11:57.580Z,99.90
2019-02-18T09:14:25.113Z,99.90
2019-02-18T09:16:52.430Z,99.90
2019-02-18T09:19:19.638Z,99.90
2019-02-18T09:21:48.707Z,99.90
2019-02-18T09:24:26.818Z,99.90
2019-02-18T09:26:54.195Z,99.90
2019-02-18T09:29:21.524Z,99.90
2019-02-18T09:31:49.031Z,99.90
2019-02-18T09:34:16.238Z,99.90
2019-02-18T09:36:43.438Z,99.90
2019-02-18T09:39:15.068Z,99.90
2019-02-18T09:41:42.226Z,99.90
2019-02-18T09:44:10.019Z,99.90
2019-02-18T09:46:37.027Z,99.90
2019-02-18T09:49:04.154Z,99.90
2019-02-18T09:51:31.250Z,99.90
2019-02-18T09:53:58.516Z,99.90
2019-02-18T09:56:25.807Z,99.90
2019-02-18T09:58:52.886Z,99.90
2019-02-18T10:01:30.099Z,99.90
2019-02-18T10:03:59.472Z,99.90
2019-02-18T10:06:26.905Z,99.90
2019-02-18T10:08:53.980Z,99.90
2019-02-18T10:11:21.091Z,99.90
2019-02-18T10:13:48.229Z,99.90
2019-02-18T10:16:15.562Z,99.90
2019-02-18T10:18:42.611Z,99.90
2019-02-18T10:21:09.857Z,99.90
2019-02-18T10:23:37.082Z,99.90
2019-02-18T10:26:04.367Z,99.90
2019-02-18T10:28:31.973Z,99.90
2019-02-18T10:30:59.564Z,99.90
2019-02-18T10:33:26.741Z,99.90
2019-02-18T10:35:53.860Z,99.90
2019-02-18T10:38:21.823Z,99.90
2019-02-18T10:40:49.199Z,99.90
2019-02-18T10:43:16.427Z,99.90
2019-02-18T10:45:43.508Z,99.90
2019-02-18T10:48:11.182Z,99.90
2019-02-18T10:50:38.998Z,99.90
2019-02-18T10:53:06.283Z,99.90
2019-02-18T10:55:37.621Z,99.90
2019-02-18T10:58:05.283Z,99.90
2019-02-18T11:00:33.767Z,99.90
2019-02-18T11:03:00.772Z,99.90
2019-02-18T11:05:28.167Z,99.90
2019-02-18T11:07:55.837Z,99.90
2019-02-18T11:10:23.482Z,99.90
2019-02-18T11:12:50.798Z,99.90
2019-02-18T11:15:18.010Z,99.90
2019-02-18T11:17:45.441Z,99.90
2019-02-18T11:20:13.308Z,99.90
2019-02-18T11:22:40.966Z,99.90
2019-02-18T11:25:17.200Z,99.90
2019-02-18T11:27:44.687Z,99.90
2019-02-18T11:30:12.733Z,99.90
2019-02-18T11:32:40.375Z,99.90
2019-02-18T11:35:07.791Z,99.90
2019-02-18T11:37:35.339Z,99.90
2019-02-18T11:40:03.067Z,99.90
2019-02-18T11:42:30.626Z,99.90
2019-02-18T11:44:57.702Z,99.90
2019-02-18T11:47:25.133Z,99.90
2019-02-18T11:49:52.300Z,99.90
2019-02-18T11:52:19.655Z,99.90
2019-02-18T11:54:48.117Z,99.90
2019-02-18T11:57:15.436Z,99.90
2019-02-18T11:59:42.878Z,99.90
2019-02-18T12:02:10.158Z,99.90
2019-02-18T12:04:37.555Z,99.90
2019-02-18T12:07:04.675Z,99.90
2019-02-18T12:09:31.820Z,99.90
2019-02-18T12:11:59.017Z,99.90
2019-02-18T12:14:27.470Z,99.90
2019-02-18T12:16:55.123Z,99.90
2019-02-18T12:19:22.670Z,99.90
2019-02-18T12:21:49.925Z,99.90
2019-02-18T12:24:17.085Z,99.90
2019-02-18T12:26:44.375Z,99.90
2019-02-18T12:29:11.514Z,99.90
2019-02-18T12:31:38.779Z,99.90
2019-02-18T12:34:06.028Z,99.90
2019-02-18T12:36:33.347Z,99.90
2019-02-18T12:39:00.499Z,99.90
2019-02-18T12:41:28.342Z,99.90
2019-02-18T12:43:55.519Z,99.90
2019-02-18T12:46:22.662Z,99.90
2019-02-18T12:48:50.064Z,99.90
2019-02-18T12:51:17.378Z,99.90
2019-02-18T12:53:46.277Z,99.90
2019-02-18T12:56:13.815Z,99.90
2019-02-18T12:58:41.427Z,99.90
2019-02-18T13:01:09.272Z,99.90
2019-02-18T13:03:36.462Z,99.90
2019-02-18T13:06:03.762Z,99.90
2019-02-18T13:08:31.453Z,98.00
2019-02-18T13:10:58.764Z,99.00
2019-02-18T13:13:25.942Z,97.40
2019-02-18T13:15:53.473Z,97.10
2019-02-18T13:18:20.824Z,97.00
2019-02-18T13:20:48.533Z,96.50
2019-02-18T13:23:15.859Z,94.00
2019-02-18T13:25:47.482Z,93.10
2019-02-18T13:28:12.600Z,92.80
2019-02-18T13:30:39.925Z,92.60
2019-02-18T13:33:07.522Z,92.40
2019-02-18T13:35:34.911Z,93.00
2019-02-18T13:38:02.349Z,92.10
2019-02-18T13:40:29.596Z,92.40
2019-02-18T13:42:56.914Z,92.10
2019-02-18T13:45:24.306Z,92.50
2019-02-18T13:47:51.994Z,92.50
2019-02-18T13:50:19.185Z,93.60
2019-02-18T13:52:46.574Z,93.00
2019-02-18T13:55:13.988Z,92.40
2019-02-18T13:57:41.623Z,92.10
2019-02-18T14:00:18.401Z,91.60
2019-02-18T14:02:46.621Z,92.00
2019-02-18T14:05:14.016Z,91.80
2019-02-18T14:07:41.382Z,91.20
2019-02-18T14:10:08.963Z,91.80
2019-02-18T14:12:38.134Z,92.10
2019-02-18T14:15:07.726Z,92.00
2019-02-18T14:17:35.374Z,91.50
2019-02-18T14:20:03.165Z,92.00
2019-02-18T14:22:30.375Z,92.00
2019-02-18T14:24:57.694Z,90.90
2019-02-18T14:27:25.084Z,91.00
2019-02-18T14:29:52.438Z,91.00
2019-02-18T14:32:20.026Z,91.00
2019-02-18T14:34:47.261Z,90.40
2019-02-18T14:37:14.572Z,91.20
2019-02-18T14:39:41.853Z,90.30
2019-02-18T14:42:09.035Z,89.10
2019-02-18T14:44:36.288Z,88.50
2019-02-18T14:47:03.821Z,89.90
2019-02-18T14:49:31.242Z,90.20
2019-02-18T14:51:58.479Z,90.60
2019-02-18T14:54:26.556Z,90.90
2019-02-18T14:56:54.095Z,89.80
2019-02-18T14:59:21.236Z,90.10
2019-02-18T15:01:48.756Z,90.20
2019-02-18T15:04:16.377Z,89.30
2019-02-18T15:06:44.036Z,90.80
2019-02-18T15:09:11.695Z,91.50
2019-02-18T15:11:39.001Z,90.50
2019-02-18T15:14:06.529Z,91.60
2019-02-18T15:16:33.776Z,91.10
2019-02-18T15:19:01.078Z,91.10
2019-02-18T15:21:28.487Z,89.90
2019-02-18T15:23:56.439Z,90.00
2019-02-18T15:26:24.538Z,88.70
2019-02-18T15:28:51.898Z,91.00
2019-02-18T15:31:19.211Z,90.80
2019-02-18T15:33:46.953Z,91.20
2019-02-18T15:36:14.363Z,90.80
2019-02-18T15:38:41.823Z,92.70
2019-02-18T15:41:09.180Z,91.80
2019-02-18T15:43:36.422Z,92.70
2019-02-18T15:46:03.913Z,93.50
2019-02-18T15:48:31.528Z,92.30
2019-02-18T15:50:58.881Z,93.00
2019-02-18T15:53:26.175Z,93.80
2019-02-18T15:55:54.236Z,93.60
2019-02-18T15:58:21.772Z,95.00
2019-02-18T16:00:49.218Z,93.70
2019-02-18T16:03:16.263Z,93.30
2019-02-18T16:05:43.398Z,94.40
2019-02-18T16:08:11.045Z,94.50
2019-02-18T16:10:38.736Z,94.10
2019-02-18T16:13:06.403Z,95.60
2019-02-18T16:15:33.781Z,96.90
2019-02-18T16:18:04.042Z,95.90
2019-02-18T16:20:32.832Z,96.20
2019-02-18T16:23:00.240Z,95.60
2019-02-18T16:25:28.295Z,96.00
2019-02-18T16:27:55.806Z,96.80
2019-02-18T16:30:23.509Z,96.20
2019-02-18T16:32:50.801Z,96.00
2019-02-18T16:35:18.283Z,96.90
2019-02-18T16:37:45.791Z,96.50
2019-02-18T16:40:14.380Z,95.00
2019-02-18T16:42:41.648Z,96.50
2019-02-18T16:45:10.030Z,97.80
2019-02-18T16:47:37.245Z,97.30
2019-02-18T16:50:04.886Z,97.90
2019-02-18T16:52:51.645Z,98.10
2019-02-18T16:55:18.922Z,97.90
2019-02-18T16:57:46.100Z,99.00
2019-02-18T17:00:21.462Z,99.80
2019-02-18T17:02:50.857Z,97.60
2019-02-18T17:05:18.304Z,97.80
2019-02-18T17:07:45.799Z,98.20
2019-02-18T17:10:13.359Z,98.80
2019-02-18T17:12:40.769Z,99.30
2019-02-18T17:15:08.683Z,99.90
2019-02-18T17:17:35.843Z,99.90
2019-02-18T17:20:04.246Z,99.90
2019-02-18T17:22:31.554Z,99.90
2019-02-18T17:24:58.666Z,99.90
2019-02-18T17:27:25.952Z,99.90
2019-02-18T17:29:53.050Z,99.90
2019-02-18T17:32:20.579Z,99.90
2019-02-18T17:34:48.146Z,99.90
2019-02-18T17:37:16.019Z,99.90
2019-02-18T17:39:43.555Z,99.90
2019-02-18T17:42:10.697Z,99.90
2019-02-18T17:44:39.507Z,99.90
2019-02-18T17:47:06.692Z,99.90
2019-02-18T17:49:34.135Z,99.90
2019-02-18T17:52:01.533Z,99.90
2019-02-18T17:54:28.701Z,99.90
2019-02-18T17:56:55.903Z,99.90
2019-02-18T17:59:23.462Z,99.90
2019-02-18T18:01:50.595Z,99.90
2019-02-18T18:04:17.787Z,99.90
2019-02-18T18:06:44.945Z,99.90
2019-02-18T18:09:12.567Z,99.90
2019-02-18T18:11:43.124Z,99.90
2019-02-18T18:14:10.343Z,99.90
2019-02-18T18:16:37.560Z,99.90
2019-02-18T18:19:09.350Z,99.90
2019-02-18T18:21:33.892Z,99.90
2019-02-18T18:24:01.371Z,99.90
2019-02-18T18:26:28.816Z,99.90
2019-02-18T18:28:55.911Z,99.90
2019-02-18T18:31:24.072Z,99.90
2019-02-18T18:33:51.184Z,99.90
2019-02-18T18:36:18.614Z,99.90
2019-02-18T18:38:46.033Z,99.90
2019-02-18T18:41:13.324Z,99.90
2019-02-18T18:43:40.883Z,99.90
2019-02-18T18:46:08.156Z,99.90
2019-02-18T18:48:35.498Z,99.90
2019-02-18T18:51:02.823Z,99.90
2019-02-18T18:53:30.015Z,99.90
2019-02-18T18:55:57.367Z,99.90
2019-02-18T18:58:24.912Z,99.90
2019-02-18T19:00:52.543Z,99.90
2019-02-18T19:03:20.008Z,99.90
2019-02-18T19:05:47.270Z,99.90
2019-02-18T19:08:14.712Z,99.90
2019-02-18T19:10:41.897Z,99.90
2019-02-18T19:13:10.852Z,99.90
2019-02-18T19:15:38.415Z,99.90
2019-02-18T19:18:06.826Z,99.90
2019-02-18T19:20:34.146Z,99.90
2019-02-18T19:23:01.127Z,99.90
2019-02-18T19:25:29.849Z,99.90
2019-02-18T19:27:57.445Z,99.90
2019-02-18T19:30:25.607Z,99.90
2019-02-18T19:32:52.770Z,99.90
2019-02-18T19:35:20.151Z,99.90
2019-02-18T19:37:47.276Z,99.90
2019-02-18T19:40:14.375Z,99.90
2019-02-18T19:42:41.701Z,99.90
2019-02-18T19:45:11.579Z,99.90
2019-02-18T19:47:39.131Z,99.90
2019-02-18T19:50:07.044Z,99.90
2019-02-18T19:52:34.176Z,99.90
2019-02-18T19:55:01.671Z,99.90
2019-02-18T19:57:29.118Z,99.90
2019-02-18T19:59:56.263Z,99.90
2019-02-18T20:02:23.550Z,99.90
2019-02-18T20:04:51.162Z,99.90
2019-02-18T20:07:18.328Z,99.90
2019-02-18T20:09:45.803Z,99.90
2019-02-18T20:12:13.245Z,99.90
2019-02-18T20:14:40.478Z,99.90
2019-02-18T20:17:07.646Z,99.90
2019-02-18T20:19:35.070Z,99.90
2019-02-18T20:22:02.753Z,99.90
2019-02-18T20:24:30.107Z,99.90
2019-02-18T20:26:57.358Z,99.90
2019-02-18T20:29:24.715Z,99.90
2019-02-18T20:31:51.949Z,99.90
2019-02-18T20:34:19.290Z,99.90
2019-02-18T20:36:47.483Z,99.90
2019-02-18T20:39:14.957Z,99.90
2019-02-18T20:41:42.239Z,99.90
2019-02-18T20:44:09.379Z,99.90
2019-02-18T20:46:36.679Z,99.90
2019-02-18T20:49:03.998Z,99.90
2019-02-18T20:51:32.036Z,99.90
2019-02-18T20:53:59.524Z,99.90
2019-02-18T20:56:27.029Z,99.90
2019-02-18T20:58:54.647Z,99.90
2019-02-18T21:01:21.837Z,99.90
2019-02-18T21:03:49.550Z,99.90
2019-02-18T21:06:17.200Z,99.90
2019-02-18T21:08:44.578Z,99.90
2019-02-18T21:11:11.958Z,99.90
2019-02-18T21:13:39.618Z,99.90
2019-02-18T21:16:07.136Z,99.90
2019-02-18T21:18:34.289Z,99.90
2019-02-18T21:21:01.455Z,99.90
2019-02-18T21:23:28.907Z,99.90
2019-02-18T21:25:56.906Z,99.90
2019-02-18T21:28:24.738Z,99.90
2019-02-18T21:30:52.434Z,99.90
2019-02-18T21:33:19.720Z,99.90
2019-02-18T21:35:46.926Z,99.90
2019-02-18T21:38:14.889Z,99.90
2019-02-18T21:40:42.245Z,99.90
2019-02-18T21:43:09.578Z,99.90
2019-02-18T21:45:38.812Z,99.90
2019-02-18T21:48:05.851Z,99.90
2019-02-18T21:50:33.019Z,99.90
2019-02-18T21:53:00.271Z,99.90
2019-02-18T21:55:27.878Z,99.90
2019-02-18T21:57:55.247Z,99.90
2019-02-18T22:00:23.398Z,99.90
2019-02-18T22:02:58.337Z,99.90
2019-02-18T22:05:25.842Z,99.90
2019-02-18T22:07:54.366Z,99.90
2019-02-18T22:10:22.378Z,99.90
2019-02-18T22:12:49.838Z,99.90
2019-02-18T22:15:17.187Z,99.90
2019-02-18T22:17:44.565Z,99.90
2019-02-18T22:20:12.875Z,99.90
2019-02-18T22:22:41.773Z,99.90
2019-02-18T22:25:10.384Z,99.90
2019-02-18T22:27:37.706Z,99.90
2019-02-18T22:30:06.649Z,99.90
2019-02-18T22:32:33.987Z,99.90
2019-02-18T22:35:02.747Z,99.90
2019-02-18T22:37:31.189Z,99.90
2019-02-18T22:39:58.410Z,99.90
2019-02-18T22:42:25.754Z,99.90
2019-02-18T22:44:52.959Z,99.90
2019-02-18T22:47:20.225Z,99.90
2019-02-18T22:49:47.542Z,99.90
2019-02-18T22:52:15.112Z,99.90
2019-02-18T22:54:42.406Z,99.90
2019-02-18T22:57:10.082Z,99.90
2019-02-18T22:59:37.361Z,99.90
2019-02-18T23:02:06.674Z,99.90
2019-02-18T23:04:34.144Z,99.90
2019-02-18T23:07:01.527Z,99.90
2019-02-18T23:09:28.914Z,99.90
2019-02-18T23:11:56.218Z,99.90
2019-02-18T23:14:23.858Z,99.90
2019-02-18T23:16:51.128Z,99.90
2019-02-18T23:19:18.614Z,99.90
2019-02-18T23:21:45.858Z,99.90
2019-02-18T23:24:13.386Z,99.90
2019-02-18T23:26:41.035Z,99.90
2019-02-18T23:29:08.321Z,99.90
2019-02-18T23:31:35.584Z,99.90
2019-02-18T23:34:03.380Z,99.90
2019-02-18T23:36:32.173Z,99.90
2019-02-18T23:38:59.389Z,99.90
2019-02-18T23:41:26.907Z,99.90
2019-02-18T23:43:54.604Z,99.90
2019-02-18T23:46:22.571Z,99.90
2019-02-18T23:48:50.210Z,99.90
2019-02-18T23:51:17.890Z,99.90
2019-02-18T23:53:45.172Z,99.90
2019-02-18T23:56:12.387Z,99.90
2019-02-18T23:58:39.843Z,99.90
